createdAt,value
2023-04-21T00:00:10.974Z,3.10
2023-04-21T00:02:41.364Z,3.92
2023-04-21T00:05:12.659Z,2.92
2023-04-21T00:07:41.647Z,3.40
2023-04-21T00:10:11.032Z,1.95
2023-04-21T00:12:39.559Z,4.57
2023-04-21T00:15:10.900Z,4.60
2023-04-21T00:17:39.639Z,3.90
2023-04-21T00:20:10.651Z,3.38
2023-04-21T00:22:39.301Z,3.53
2023-04-21T00:25:08.740Z,3.95
2023-04-21T00:27:37.309Z,2.97
2023-04-21T00:30:07.007Z,4.33
2023-04-21T00:32:36.982Z,3.00
2023-04-21T00:35:05.961Z,2.63
2023-04-21T00:37:34.573Z,2.83
2023-04-21T00:40:04.648Z,3.50
2023-04-21T00:42:33.166Z,2.47
2023-04-21T00:45:01.688Z,1.60
2023-04-21T00:47:31.159Z,4.18
2023-04-21T00:50:01.622Z,2.97
2023-04-21T00:52:30.771Z,3.33
2023-04-21T00:55:00.565Z,2.53
2023-04-21T00:57:29.800Z,2.35
2023-04-21T00:59:58.354Z,2.40
2023-04-21T01:02:28.523Z,3.20
2023-04-21T01:04:57.856Z,2.88
2023-04-21T01:07:28.015Z,4.13
2023-04-21T01:09:56.518Z,1.73
2023-04-21T01:12:25.003Z,5.78
2023-04-21T01:14:53.590Z,6.37
2023-04-21T01:17:22.805Z,1.83
2023-04-21T01:19:54.566Z,4.13
2023-04-21T01:22:24.496Z,4.20
2023-04-21T01:24:53.026Z,2.40
2023-04-21T01:27:22.530Z,3.13
2023-04-21T01:29:52.968Z,3.75
2023-04-21T01:32:23.272Z,5.07
2023-04-21T01:34:53.067Z,5.35
2023-04-21T01:37:25.502Z,1.83
2023-04-21T01:39:57.315Z,3.97
2023-04-21T01:42:28.596Z,2.42
2023-04-21T01:44:58.314Z,3.17
2023-04-21T01:47:27.188Z,3.00
2023-04-21T01:49:55.690Z,4.23
2023-04-21T01:52:25.615Z,2.70
2023-04-21T01:54:54.132Z,5.22
2023-04-21T01:57:22.669Z,6.50
2023-04-21T01:59:51.179Z,4.07
2023-04-21T02:02:19.834Z,6.40
2023-04-21T02:04:48.405Z,2.65
2023-04-21T02:07:16.927Z,3.70
2023-04-21T02:09:46.794Z,3.83
2023-04-21T02:12:15.343Z,3.33
2023-04-21T02:14:43.919Z,3.30
2023-04-21T02:17:12.456Z,2.78
2023-04-21T02:19:41.118Z,4.67
2023-04-21T02:22:12.799Z,3.47
2023-04-21T02:24:41.739Z,3.88
2023-04-21T02:27:11.656Z,3.30
2023-04-21T02:29:40.253Z,5.32
2023-04-21T02:32:22.219Z,4.00
2023-04-21T02:34:54.377Z,4.83
2023-04-21T02:37:23.038Z,4.97
2023-04-21T02:39:51.551Z,4.03
2023-04-21T02:42:21.476Z,4.00
2023-04-21T02:44:50.120Z,3.10
2023-04-21T02:47:18.659Z,4.37
2023-04-21T02:49:47.208Z,3.90
2023-04-21T02:52:16.061Z,3.38
2023-04-21T02:54:44.601Z,2.95
2023-04-21T02:57:13.294Z,5.18
2023-04-21T02:59:43.148Z,3.90
2023-04-21T03:02:11.726Z,4.07
2023-04-21T03:04:40.367Z,2.13
2023-04-21T03:07:14.058Z,3.33
2023-04-21T03:09:42.683Z,5.00
2023-04-21T03:12:11.183Z,2.87
2023-04-21T03:14:39.689Z,5.10
2023-04-21T03:17:09.633Z,3.20
2023-04-21T03:19:38.124Z,3.80
2023-04-21T03:22:06.795Z,2.87
2023-04-21T03:24:35.307Z,3.58
2023-04-21T03:27:03.862Z,2.35
2023-04-21T03:29:32.370Z,1.90
2023-04-21T03:32:01.243Z,3.92
2023-04-21T03:34:31.209Z,5.15
2023-04-21T03:36:59.723Z,3.13
2023-04-21T03:39:28.255Z,4.85
2023-04-21T03:41:56.786Z,3.28
2023-04-21T03:44:28.713Z,4.30
2023-04-21T03:46:57.647Z,3.30
2023-04-21T03:49:26.537Z,2.87
2023-04-21T03:51:56.433Z,3.90
2023-04-21T03:54:24.905Z,4.47
2023-04-21T03:56:53.620Z,2.72
2023-04-21T03:59:22.181Z,3.13
2023-04-21T04:01:50.886Z,3.50
2023-04-21T04:04:19.757Z,2.20
2023-04-21T04:06:48.432Z,3.03
2023-04-21T04:09:18.449Z,2.45
2023-04-21T04:11:47.240Z,2.80
2023-04-21T04:14:15.789Z,4.60
2023-04-21T04:16:44.506Z,3.42
2023-04-21T04:19:13.494Z,2.63
2023-04-21T04:21:42.012Z,2.70
2023-04-21T04:24:11.565Z,2.35
2023-04-21T04:26:41.556Z,3.58
2023-04-21T04:29:11.287Z,4.30
2023-04-21T04:31:39.912Z,3.78
2023-04-21T04:34:09.696Z,3.38
2023-04-21T04:36:38.235Z,3.85
2023-04-21T04:39:08.962Z,3.47
2023-04-21T04:41:38.200Z,2.80
2023-04-21T04:44:08.956Z,2.00
2023-04-21T04:46:37.631Z,2.40
2023-04-21T04:49:06.557Z,3.30
2023-04-21T04:51:35.084Z,3.10
2023-04-21T04:54:03.634Z,4.43
2023-04-21T04:56:32.784Z,3.45
2023-04-21T04:59:01.306Z,3.22
2023-04-21T05:01:31.438Z,1.80
2023-04-21T05:04:00.346Z,3.78
2023-04-21T05:06:29.258Z,2.00
2023-04-21T05:08:57.775Z,1.55
2023-04-21T05:11:26.317Z,4.68
2023-04-21T05:13:54.905Z,3.03
2023-04-21T05:16:23.522Z,2.08
2023-04-21T05:18:54.360Z,2.75
2023-04-21T05:21:28.332Z,4.55
2023-04-21T05:23:57.497Z,2.72
2023-04-21T05:26:27.551Z,3.05
2023-04-21T05:28:57.100Z,3.60
2023-04-21T05:31:26.487Z,1.70
2023-04-21T05:33:56.523Z,4.43
2023-04-21T05:36:25.899Z,1.80
2023-04-21T05:38:55.143Z,2.83
2023-04-21T05:41:24.001Z,1.73
2023-04-21T05:43:52.528Z,4.20
2023-04-21T05:46:21.065Z,3.60
2023-04-21T05:48:49.641Z,4.07
2023-04-21T05:51:19.553Z,5.27
2023-04-21T05:53:48.102Z,3.93
2023-04-21T05:56:16.606Z,3.90
2023-04-21T05:58:45.187Z,2.22
2023-04-21T06:01:15.479Z,2.67
2023-04-21T06:03:44.232Z,5.30
2023-04-21T06:06:13.310Z,2.60
2023-04-21T06:08:42.960Z,2.70
2023-04-21T06:11:11.225Z,2.20
2023-04-21T06:13:40.459Z,2.80
2023-04-21T06:16:10.653Z,1.95
2023-04-21T06:18:38.942Z,2.75
2023-04-21T06:21:07.413Z,4.35
2023-04-21T06:23:35.682Z,2.78
2023-04-21T06:26:07.649Z,3.25
2023-04-21T06:28:39.227Z,2.08
2023-04-21T06:31:08.858Z,2.22
2023-04-21T06:33:37.850Z,3.35
2023-04-21T06:36:07.319Z,1.98
2023-04-21T06:38:35.582Z,1.83
2023-04-21T06:41:06.559Z,2.70
2023-04-21T06:43:35.152Z,1.45
2023-04-21T06:46:03.673Z,1.75
2023-04-21T06:48:32.318Z,2.70
2023-04-21T06:51:02.678Z,3.85
2023-04-21T06:53:31.310Z,3.23
2023-04-21T06:55:59.899Z,3.53
2023-04-21T06:58:29.787Z,1.35
2023-04-21T07:00:58.341Z,3.05
2023-04-21T07:03:26.896Z,4.07
2023-04-21T07:05:55.455Z,2.03
2023-04-21T07:08:24.131Z,3.35
2023-04-21T07:10:52.627Z,4.38
2023-04-21T07:13:21.204Z,3.30
2023-04-21T07:15:51.106Z,4.68
2023-04-21T07:18:19.636Z,3.35
2023-04-21T07:20:48.193Z,3.65
2023-04-21T07:23:16.664Z,3.57
2023-04-21T07:25:45.394Z,3.67
2023-04-21T07:28:15.178Z,2.72
2023-04-21T07:30:43.910Z,4.43
2023-04-21T07:33:13.806Z,3.22
2023-04-21T07:35:42.374Z,4.60
2023-04-21T07:38:10.964Z,1.92
2023-04-21T07:40:39.180Z,1.65
2023-04-21T07:43:07.713Z,3.00
2023-04-21T07:45:36.263Z,3.85
2023-04-21T07:48:06.207Z,1.80
2023-04-21T07:50:36.942Z,4.78
2023-04-21T07:53:05.608Z,2.65
2023-04-21T07:55:34.645Z,2.87
2023-04-21T07:58:03.161Z,2.83
2023-04-21T08:00:31.687Z,3.80
2023-04-21T08:03:00.339Z,3.38
2023-04-21T08:05:32.354Z,2.78
2023-04-21T08:08:04.089Z,2.37
2023-04-21T08:10:32.610Z,3.67
2023-04-21T08:13:01.314Z,6.32
2023-04-21T08:15:29.886Z,4.72
2023-04-21T08:17:58.449Z,4.68
2023-04-21T08:20:26.722Z,7.07
2023-04-21T08:22:55.064Z,4.38
2023-04-21T08:25:24.886Z,2.92
2023-04-21T08:27:53.208Z,3.88
2023-04-21T08:30:21.909Z,5.32
2023-04-21T08:32:50.459Z,6.30
2023-04-21T08:35:18.878Z,4.10
2023-04-21T08:37:47.269Z,3.58
2023-04-21T08:40:15.623Z,3.83
2023-04-21T08:42:45.904Z,6.05
2023-04-21T08:45:14.417Z,5.05
2023-04-21T08:47:43.342Z,5.80
2023-04-21T08:50:15.858Z,4.97
2023-04-21T08:52:44.145Z,4.35
2023-04-21T08:55:14.036Z,6.20
2023-04-21T08:57:44.021Z,5.15
2023-04-21T09:00:13.523Z,5.40
2023-04-21T09:03:00.769Z,3.23
2023-04-21T09:05:31.322Z,4.20
2023-04-21T09:08:10.731Z,4.47
2023-04-21T09:10:46.471Z,4.82
2023-04-21T09:13:16.868Z,3.55
2023-04-21T09:15:47.003Z,6.07
2023-04-21T09:18:16.972Z,5.47
2023-04-21T09:20:46.822Z,6.28
2023-04-21T09:23:15.752Z,5.18
2023-04-21T09:25:46.392Z,5.85
2023-04-21T09:28:16.657Z,6.25
2023-04-21T09:30:45.230Z,6.10
2023-04-21T09:33:29.042Z,6.30
2023-04-21T09:36:04.010Z,6.00
2023-04-21T09:38:33.711Z,4.45
2023-04-21T09:41:02.214Z,6.22
2023-04-21T09:43:32.104Z,5.60
2023-04-21T09:46:02.827Z,5.20
2023-04-21T09:48:35.144Z,2.95
2023-04-21T09:53:41.779Z,6.20
2023-04-21T09:56:13.838Z,5.73
2023-04-21T09:58:48.005Z,4.97
2023-04-21T10:01:17.727Z,5.95
2023-04-21T10:03:48.959Z,5.40
2023-04-21T10:06:17.904Z,4.22
2023-04-21T10:08:46.972Z,3.40
2023-04-21T10:11:15.891Z,6.43
2023-04-21T10:13:46.902Z,5.43
2023-04-21T10:16:19.836Z,5.43
2023-04-21T10:18:48.417Z,6.17
2023-04-21T10:21:22.051Z,5.07
2023-04-21T10:23:53.012Z,3.20
2023-04-21T10:26:22.667Z,5.70
2023-04-21T10:28:57.786Z,5.60
2023-04-21T10:31:31.964Z,4.00
2023-04-21T10:34:20.877Z,4.80
2023-04-21T10:37:13.325Z,6.20
2023-04-21T10:39:58.306Z,5.27
2023-04-21T10:42:29.769Z,2.78
2023-04-21T10:45:20.043Z,4.60
2023-04-21T10:47:51.433Z,3.42
2023-04-21T10:50:22.836Z,5.15
2023-04-21T10:52:56.851Z,3.80
2023-04-21T10:55:29.081Z,6.80
2023-04-21T10:57:59.125Z,5.10
2023-04-21T11:00:29.422Z,5.93
2023-04-21T11:03:00.109Z,6.07
2023-04-21T11:05:38.672Z,5.97
2023-04-21T11:08:14.059Z,6.40
2023-04-21T11:11:00.273Z,6.07
2023-04-21T11:13:33.599Z,6.00
2023-04-21T11:16:06.877Z,6.53
2023-04-21T11:18:45.896Z,6.63
2023-04-21T11:21:20.234Z,5.53
2023-04-21T11:23:53.874Z,7.00
2023-04-21T11:26:33.215Z,5.32
2023-04-21T11:29:02.983Z,5.72
2023-04-21T11:31:33.103Z,5.55
2023-04-21T11:34:02.039Z,6.60
2023-04-21T11:36:30.793Z,5.95
2023-04-21T11:38:59.520Z,6.45
2023-04-21T11:41:28.073Z,7.55
2023-04-21T11:43:56.604Z,6.65
2023-04-21T11:46:27.045Z,6.25
2023-04-21T11:49:04.916Z,6.15
2023-04-21T11:51:37.818Z,7.30
2023-04-21T11:54:08.621Z,7.65
2023-04-21T11:56:38.509Z,6.93
2023-04-21T11:59:12.686Z,6.63
2023-04-21T12:01:48.332Z,6.53
2023-04-21T12:04:20.010Z,5.80
2023-04-21T12:06:56.241Z,6.28
2023-04-21T12:09:24.480Z,5.60
2023-04-21T12:11:54.383Z,6.05
2023-04-21T12:14:24.296Z,6.60
2023-04-21T12:16:55.625Z,7.03
2023-04-21T12:19:26.758Z,6.43
2023-04-21T12:21:56.460Z,6.07
2023-04-21T12:24:24.950Z,6.28
2023-04-21T12:26:53.246Z,5.63
2023-04-21T12:29:21.691Z,5.65
2023-04-21T12:31:50.309Z,5.75
2023-04-21T12:34:18.882Z,5.93
2023-04-21T12:36:48.513Z,6.63
2023-04-21T12:39:17.411Z,5.30
2023-04-21T12:41:47.449Z,5.38
2023-04-21T12:44:15.940Z,5.75
2023-04-21T12:46:46.005Z,4.97
2023-04-21T12:49:15.727Z,5.20
2023-04-21T12:51:44.325Z,5.43
2023-04-21T12:54:14.484Z,4.60
2023-04-21T12:56:43.688Z,4.80
2023-04-21T12:59:12.750Z,5.27
2023-04-21T13:01:42.506Z,5.35
2023-04-21T13:04:11.255Z,5.10
2023-04-21T13:06:40.679Z,4.97
2023-04-21T13:09:08.925Z,4.75
2023-04-21T13:11:38.583Z,3.67
2023-04-21T13:14:06.841Z,4.70
2023-04-21T13:16:35.082Z,3.55
2023-04-21T13:19:04.185Z,4.07
2023-04-21T13:21:32.764Z,3.78
2023-04-21T13:24:02.212Z,3.70
2023-04-21T13:26:33.592Z,4.53
2023-04-21T13:29:03.734Z,3.60
2023-04-21T13:31:32.456Z,4.20
2023-04-21T13:34:01.841Z,4.27
2023-04-21T13:36:30.473Z,3.38
2023-04-21T13:39:00.768Z,4.50
2023-04-21T13:41:29.032Z,3.78
2023-04-21T13:43:57.393Z,3.50
2023-04-21T13:46:27.134Z,3.50
2023-04-21T13:48:55.525Z,3.63
2023-04-21T13:51:23.798Z,3.65
2023-04-21T13:53:52.099Z,3.83
2023-04-21T13:56:20.331Z,3.40
2023-04-21T13:58:48.733Z,3.58
2023-04-21T14:01:19.164Z,2.72
2023-04-21T14:03:50.844Z,3.10
2023-04-21T14:06:19.343Z,3.50
2023-04-21T14:08:47.584Z,2.40
2023-04-21T14:11:15.931Z,3.20
2023-04-21T14:13:56.134Z,3.30
2023-04-21T14:16:32.470Z,3.30
2023-04-21T14:19:02.164Z,2.58
2023-04-21T14:21:31.033Z,3.50
2023-04-21T14:23:59.447Z,2.90
2023-04-21T14:26:27.795Z,2.83
2023-04-21T14:28:56.457Z,3.10
2023-04-21T14:31:24.745Z,2.75
2023-04-21T14:33:53.023Z,2.67
2023-04-21T14:36:22.870Z,3.45
2023-04-21T14:38:51.654Z,2.70
2023-04-21T14:41:19.989Z,2.30
2023-04-21T14:43:49.873Z,2.25
2023-04-21T14:46:18.264Z,2.85
2023-04-21T14:48:46.811Z,3.00
2023-04-21T14:51:15.093Z,2.90
2023-04-21T14:53:44.712Z,2.90
2023-04-21T14:56:12.976Z,2.40
2023-04-21T14:58:41.264Z,2.33
2023-04-21T15:01:10.602Z,2.00
2023-04-21T15:03:39.047Z,2.10
2023-04-21T15:06:07.950Z,2.08
2023-04-21T15:08:36.422Z,1.63
2023-04-21T15:11:06.472Z,1.73
2023-04-21T15:13:35.221Z,1.73
2023-04-21T15:16:03.452Z,1.60
2023-04-21T15:18:31.698Z,1.77
2023-04-21T15:20:59.971Z,1.92
2023-04-21T15:23:29.190Z,1.77
2023-04-21T15:25:58.048Z,1.70
2023-04-21T15:28:27.735Z,1.95
2023-04-21T15:30:56.101Z,1.90
2023-04-21T15:33:24.367Z,1.77
2023-04-21T15:35:52.586Z,1.70
2023-04-21T15:38:21.222Z,1.63
2023-04-21T15:41:00.164Z,1.95
2023-04-21T15:43:31.055Z,2.10
2023-04-21T15:45:59.493Z,1.90
2023-04-21T15:48:27.870Z,1.90
2023-04-21T15:50:57.248Z,1.63
2023-04-21T15:53:26.009Z,1.83
2023-04-21T15:55:54.230Z,1.80
2023-04-21T15:58:22.501Z,2.05
2023-04-21T16:00:52.402Z,1.90
2023-04-21T16:03:21.626Z,2.10
2023-04-21T16:05:50.464Z,1.60
2023-04-21T16:08:19.059Z,1.75
2023-04-21T16:10:47.669Z,2.10
2023-04-21T16:13:16.082Z,1.70
2023-04-21T16:15:44.449Z,2.00
2023-04-21T16:18:14.171Z,1.50
2023-04-21T16:20:43.929Z,2.05
2023-04-21T16:23:12.423Z,1.75
2023-04-21T16:25:40.880Z,1.73
2023-04-21T16:28:09.852Z,2.00
2023-04-21T16:30:38.618Z,1.60
2023-04-21T16:33:06.892Z,1.50
2023-04-21T16:35:36.563Z,1.75
2023-04-21T16:38:04.997Z,1.50
2023-04-21T16:40:34.197Z,1.05
2023-04-21T16:43:02.497Z,1.48
2023-04-21T16:45:31.003Z,1.80
2023-04-21T16:47:59.345Z,1.75
2023-04-21T16:50:27.832Z,2.00
2023-04-21T16:52:57.473Z,1.70
2023-04-21T16:55:25.944Z,1.33
2023-04-21T16:57:54.246Z,1.23
2023-04-21T17:00:22.534Z,1.50
2023-04-21T17:02:50.898Z,1.70
2023-04-21T17:05:19.447Z,1.02
2023-04-21T17:07:48.335Z,1.58
2023-04-21T17:10:18.106Z,1.38
2023-04-21T17:12:46.414Z,0.70
2023-04-21T17:15:15.394Z,1.20
2023-04-21T17:17:47.159Z,1.10
2023-04-21T17:20:16.118Z,0.88
2023-04-21T17:22:47.238Z,0.60
2023-04-21T17:25:16.878Z,0.73
2023-04-21T17:27:46.358Z,0.73
2023-04-21T17:30:15.295Z,0.38
2023-04-21T17:32:43.757Z,0.30
2023-04-21T17:35:12.127Z,0.80
2023-04-21T17:37:40.975Z,0.30
2023-04-21T17:40:11.766Z,0.30
2023-04-21T17:42:41.753Z,0.40
2023-04-21T17:45:10.802Z,0.40
2023-04-21T17:47:39.185Z,0.30
2023-04-21T17:50:09.885Z,0.52
2023-04-21T17:52:38.142Z,0.40
2023-04-21T17:55:07.394Z,0.30
2023-04-21T17:57:36.242Z,0.30
2023-04-21T18:00:08.688Z,0.55
2023-04-21T18:02:37.165Z,0.40
2023-04-21T18:05:06.715Z,0.30
2023-04-21T18:07:35.036Z,0.20
2023-04-21T18:10:03.385Z,0.20
2023-04-21T18:12:31.709Z,0.40
2023-04-21T18:14:59.930Z,0.30
2023-04-21T18:17:29.514Z,0.30
2023-04-21T18:19:57.762Z,0.30
2023-04-21T18:22:26.005Z,0.40
2023-04-21T18:24:54.283Z,0.30
2023-04-21T18:27:22.514Z,0.40
2023-04-21T18:29:51.328Z,0.30
2023-04-21T18:32:19.682Z,0.30
2023-04-21T18:34:49.401Z,0.30
2023-04-21T18:37:18.471Z,0.40
2023-04-21T18:39:46.679Z,0.30
2023-04-21T18:42:14.929Z,0.30
2023-04-21T18:44:43.229Z,0.30
2023-04-21T18:47:12.043Z,0.50
2023-04-21T18:49:41.026Z,0.30
2023-04-21T18:52:10.855Z,0.30
2023-04-21T18:54:39.261Z,0.75
2023-04-21T18:57:08.660Z,0.60
2023-04-21T18:59:36.977Z,0.60
2023-04-21T19:02:07.460Z,0.60
2023-04-21T19:04:36.263Z,0.70
2023-04-21T19:07:08.315Z,0.53
2023-04-21T19:09:37.966Z,0.75
2023-04-21T19:12:06.560Z,0.60
2023-04-21T19:14:45.655Z,0.65
2023-04-21T19:17:15.605Z,0.70
2023-04-21T19:19:44.201Z,0.50
2023-04-21T19:22:12.533Z,0.60
2023-04-21T19:24:42.110Z,0.50
2023-04-21T19:27:10.522Z,0.70
2023-04-21T19:29:38.789Z,0.57
2023-04-21T19:32:07.395Z,0.57
2023-04-21T19:34:36.232Z,0.60
2023-04-21T19:37:04.630Z,1.00
2023-04-21T19:39:32.896Z,1.20
2023-04-21T19:42:02.622Z,1.00
2023-04-21T19:44:31.271Z,1.00
2023-04-21T19:46:59.893Z,0.80
2023-04-21T19:49:28.389Z,0.80
2023-04-21T19:51:57.220Z,1.00
2023-04-21T19:54:25.720Z,0.70
2023-04-21T19:56:53.982Z,0.73
2023-04-21T19:59:23.637Z,0.70
2023-04-21T20:01:51.946Z,0.63
2023-04-21T20:04:20.383Z,0.60
2023-04-21T20:06:49.002Z,0.57
2023-04-21T20:09:17.531Z,0.70
2023-04-21T20:11:45.879Z,0.55
2023-04-21T20:14:14.096Z,0.60
2023-04-21T20:16:46.229Z,0.50
2023-04-21T20:19:17.169Z,0.70
2023-04-21T20:21:45.588Z,0.30
2023-04-21T20:24:13.782Z,0.50
2023-04-21T20:26:42.027Z,0.38
2023-04-21T20:29:10.582Z,0.40
2023-04-21T20:31:38.851Z,0.50
2023-04-21T20:34:08.729Z,0.50
2023-04-21T20:36:37.200Z,0.70
2023-04-21T20:39:06.524Z,0.80
2023-04-21T20:41:34.813Z,0.55
2023-04-21T20:44:03.356Z,0.50
2023-04-21T20:46:31.677Z,0.60
2023-04-21T20:48:59.920Z,0.63
2023-04-21T20:51:29.493Z,0.47
2023-04-21T20:53:57.694Z,0.32
2023-04-21T20:56:26.332Z,0.40
2023-04-21T20:58:54.543Z,0.30
2023-04-21T21:01:23.683Z,0.40
2023-04-21T21:03:52.453Z,0.40
2023-04-21T21:06:21.652Z,0.30
2023-04-21T21:08:51.398Z,0.40
2023-04-21T21:11:19.909Z,0.30
2023-04-21T21:13:48.107Z,0.30
2023-04-21T21:16:16.413Z,0.40
2023-04-21T21:18:44.753Z,0.30
2023-04-21T21:21:12.955Z,0.30
2023-04-21T21:23:42.373Z,0.30
2023-04-21T21:26:12.515Z,0.40
2023-04-21T21:28:40.832Z,0.55
2023-04-21T21:31:09.085Z,0.70
2023-04-21T21:33:37.328Z,0.40
2023-04-21T21:36:06.468Z,0.57
2023-04-21T21:38:34.739Z,0.70
2023-04-21T21:41:02.968Z,0.50
2023-04-21T21:43:33.304Z,0.50
2023-04-21T21:46:01.566Z,0.40
2023-04-21T21:48:29.990Z,0.32
2023-04-21T21:50:58.259Z,0.60
2023-04-21T21:53:26.671Z,0.47
2023-04-21T21:55:55.077Z,0.38
2023-04-21T21:58:23.365Z,0.43
2023-04-21T22:00:52.963Z,0.33
2023-04-21T22:03:22.002Z,0.40
2023-04-21T22:05:50.431Z,0.35
2023-04-21T22:08:18.680Z,0.43
2023-04-21T22:10:47.114Z,0.30
2023-04-21T22:13:15.364Z,0.50
2023-04-21T22:15:43.612Z,0.70
2023-04-21T22:18:13.231Z,0.40
2023-04-21T22:20:41.513Z,0.30
2023-04-21T22:23:09.734Z,0.40
2023-04-21T22:25:37.937Z,0.57
2023-04-21T22:28:06.187Z,0.50
2023-04-21T22:30:34.449Z,0.50
2023-04-21T22:33:02.891Z,0.40
2023-04-21T22:35:32.663Z,0.40
2023-04-21T22:38:00.872Z,0.45
2023-04-21T22:40:29.357Z,0.50
2023-04-21T22:42:57.655Z,0.40
2023-04-21T22:45:26.601Z,0.30
2023-04-21T22:47:55.889Z,0.60
2023-04-21T22:50:24.241Z,0.50
2023-04-21T22:52:53.895Z,0.47
2023-04-21T22:55:22.220Z,0.40
2023-04-21T22:57:50.667Z,0.63
2023-04-21T23:00:19.133Z,0.68
2023-04-21T23:02:47.534Z,0.55
2023-04-21T23:05:15.998Z,0.90
2023-04-21T23:07:44.249Z,0.40
2023-04-21T23:10:13.867Z,0.53
2023-04-21T23:12:42.342Z,0.75
2023-04-21T23:15:11.505Z,0.50
2023-04-21T23:17:39.820Z,0.60
2023-04-21T23:20:10.406Z,0.50
2023-04-21T23:22:38.703Z,0.65
2023-04-21T23:25:08.757Z,0.80
2023-04-21T23:27:38.382Z,0.65
2023-04-21T23:30:08.319Z,0.85
2023-04-21T23:32:36.704Z,0.70
2023-04-21T23:35:05.404Z,0.80
2023-04-21T23:37:33.637Z,1.27
2023-04-21T23:40:02.020Z,0.40
2023-04-21T23:42:30.396Z,0.70
2023-04-21T23:44:59.949Z,0.50
2023-04-21T23:47:28.207Z,0.73
2023-04-21T23:49:56.431Z,0.90
2023-04-21T23:52:24.703Z,0.88
2023-04-21T23:54:52.931Z,1.08
2023-04-21T23:57:21.308Z,0.90
2023-04-21T23:59:49.658Z,0.50
